createdAt,value
2022-09-14T00:00:05.129Z,97.00
2022-09-14T00:00:36.044Z,97.14
2022-09-14T00:01:24.381Z,97.14
2022-09-14T00:01:38.669Z,97.00
2022-09-14T00:02:08.238Z,97.05
2022-09-14T00:02:39.160Z,97.00
2022-09-14T00:03:10.193Z,97.20
2022-09-14T00:03:41.102Z,97.20
2022-09-14T00:04:11.586Z,97.10
2022-09-14T00:04:42.092Z,96.94
2022-09-14T00:05:13.002Z,96.89
2022-09-14T00:05:43.912Z,96.84
2022-09-14T00:06:14.797Z,96.74
2022-09-14T00:06:45.970Z,96.74
2022-09-14T00:07:16.462Z,96.69
2022-09-14T00:07:46.951Z,96.84
2022-09-14T00:08:17.900Z,96.94
2022-09-14T00:08:48.905Z,96.94
2022-09-14T00:09:19.385Z,97.00
2022-09-14T00:09:50.487Z,97.10
2022-09-14T00:10:20.980Z,97.25
2022-09-14T00:10:51.964Z,97.00
2022-09-14T00:11:22.882Z,97.05
2022-09-14T00:11:53.796Z,97.05
2022-09-14T00:12:24.776Z,97.25
2022-09-14T00:12:55.885Z,97.14
2022-09-14T00:13:26.360Z,97.14
2022-09-14T00:13:57.346Z,96.94
2022-09-14T00:14:28.234Z,96.94
2022-09-14T00:14:59.150Z,96.94
2022-09-14T00:15:30.141Z,96.74
2022-09-14T00:16:01.227Z,96.78
2022-09-14T00:16:31.862Z,96.74
2022-09-14T00:17:02.370Z,96.94
2022-09-14T00:17:32.878Z,96.94
2022-09-14T00:18:03.864Z,96.84
2022-09-14T00:18:34.822Z,96.84
2022-09-14T00:19:05.938Z,96.74
2022-09-14T00:19:36.435Z,96.44
2022-09-14T00:20:07.422Z,96.03
2022-09-14T00:20:38.330Z,96.13
2022-09-14T00:21:09.236Z,96.34
2022-09-14T00:21:40.212Z,96.64
2022-09-14T00:22:11.305Z,96.84
2022-09-14T00:22:41.805Z,96.74
2022-09-14T00:23:12.735Z,96.74
2022-09-14T00:23:43.711Z,96.54
2022-09-14T00:24:14.700Z,96.74
2022-09-14T00:24:45.611Z,96.74
2022-09-14T00:25:16.722Z,96.84
2022-09-14T00:25:47.208Z,96.84
2022-09-14T00:26:18.202Z,96.74
2022-09-14T00:26:49.195Z,96.64
2022-09-14T00:27:20.179Z,96.64
2022-09-14T00:27:51.086Z,96.64
2022-09-14T00:28:22.242Z,96.74
2022-09-14T00:28:52.709Z,96.94
2022-09-14T00:29:23.609Z,97.05
2022-09-14T00:29:54.530Z,97.05
2022-09-14T00:30:25.434Z,96.94
2022-09-14T00:30:56.348Z,97.14
2022-09-14T00:31:27.583Z,97.34
2022-09-14T00:31:57.976Z,97.25
2022-09-14T00:32:28.811Z,97.14
2022-09-14T00:32:59.809Z,97.05
2022-09-14T00:33:30.723Z,97.05
2022-09-14T00:34:01.681Z,96.94
2022-09-14T00:34:32.704Z,96.74
2022-09-14T00:35:03.191Z,96.94
2022-09-14T00:35:34.106Z,97.05
2022-09-14T00:36:05.030Z,96.84
2022-09-14T00:36:35.964Z,97.05
2022-09-14T00:37:06.893Z,97.14
2022-09-14T00:37:38.012Z,97.19
2022-09-14T00:38:08.493Z,96.94
2022-09-14T00:38:39.401Z,96.94
2022-09-14T00:39:10.356Z,96.94
2022-09-14T00:39:41.376Z,97.05
2022-09-14T00:40:11.935Z,97.05
2022-09-14T00:40:42.637Z,96.94
2022-09-14T00:41:13.128Z,96.94
2022-09-14T00:41:44.041Z,96.84
2022-09-14T00:42:14.948Z,96.74
2022-09-14T00:42:45.923Z,96.84
2022-09-14T00:43:16.855Z,96.94
2022-09-14T00:43:48.074Z,96.84
2022-09-14T00:44:18.449Z,96.84
2022-09-14T00:44:48.859Z,96.94
2022-09-14T00:45:19.878Z,97.05
2022-09-14T00:45:50.829Z,96.94
2022-09-14T00:46:21.305Z,96.84
2022-09-14T00:46:52.409Z,96.84
2022-09-14T00:47:23.046Z,97.14
2022-09-14T00:47:53.477Z,97.14
2022-09-14T00:48:24.395Z,97.25
2022-09-14T00:48:55.310Z,97.25
2022-09-14T00:49:26.294Z,97.14
2022-09-14T00:49:57.385Z,96.94
2022-09-14T00:50:27.865Z,96.94
2022-09-14T00:50:58.776Z,96.94
2022-09-14T00:51:29.669Z,96.94
2022-09-14T00:52:00.589Z,96.84
2022-09-14T00:52:31.573Z,96.74
2022-09-14T00:53:02.749Z,96.84
2022-09-14T00:53:33.198Z,96.84
2022-09-14T00:54:04.191Z,96.94
2022-09-14T00:54:34.658Z,96.94
2022-09-14T00:55:05.569Z,97.05
2022-09-14T00:55:36.486Z,97.05
2022-09-14T00:56:07.674Z,97.05
2022-09-14T00:56:38.156Z,96.94
2022-09-14T00:57:09.077Z,97.05
2022-09-14T00:57:40.062Z,96.94
2022-09-14T00:58:10.948Z,96.94
2022-09-14T00:58:41.868Z,97.14
2022-09-14T00:59:13.045Z,97.14
2022-09-14T00:59:43.532Z,97.25
2022-09-14T01:00:14.466Z,97.25
2022-09-14T01:00:45.501Z,97.25
2022-09-14T01:01:15.987Z,97.34
2022-09-14T01:01:46.482Z,97.34
2022-09-14T01:02:17.248Z,97.34
2022-09-14T01:02:47.771Z,97.34
2022-09-14T01:03:18.686Z,97.55
2022-09-14T01:03:49.595Z,97.65
2022-09-14T01:04:20.520Z,97.45
2022-09-14T01:04:51.565Z,97.45
2022-09-14T01:05:22.215Z,97.25
2022-09-14T01:05:52.695Z,97.14
2022-09-14T01:06:23.605Z,97.14
2022-09-14T01:06:54.529Z,97.14
2022-09-14T01:07:25.442Z,97.25
2022-09-14T01:07:56.345Z,97.34
2022-09-14T01:08:27.454Z,97.55
2022-09-14T01:08:57.951Z,97.55
2022-09-14T01:09:28.948Z,97.71
2022-09-14T01:09:59.901Z,97.65
2022-09-14T01:10:30.785Z,97.45
2022-09-14T01:11:01.781Z,97.25
2022-09-14T01:11:32.953Z,97.34
2022-09-14T01:12:03.434Z,97.14
2022-09-14T01:12:34.347Z,97.14
2022-09-14T01:13:05.261Z,97.34
2022-09-14T01:13:36.282Z,97.45
2022-09-14T01:14:06.689Z,97.55
2022-09-14T01:14:37.794Z,97.65
2022-09-14T01:15:08.261Z,97.45
2022-09-14T01:15:39.175Z,97.45
2022-09-14T01:16:10.172Z,97.34
2022-09-14T01:16:40.926Z,97.34
2022-09-14T01:17:11.406Z,97.34
2022-09-14T01:17:42.505Z,97.55
2022-09-14T01:18:13.014Z,97.55
2022-09-14T01:18:43.903Z,97.55
2022-09-14T01:19:14.822Z,97.65
2022-09-14T01:19:45.744Z,97.55
2022-09-14T01:20:16.700Z,97.65
2022-09-14T01:20:47.874Z,97.55
2022-09-14T01:21:18.352Z,97.55
2022-09-14T01:21:49.266Z,97.55
2022-09-14T01:22:20.188Z,97.45
2022-09-14T01:22:51.159Z,97.45
2022-09-14T01:23:22.075Z,97.34
2022-09-14T01:23:53.184Z,97.55
2022-09-14T01:24:23.667Z,97.69
2022-09-14T01:24:54.661Z,97.65
2022-09-14T01:25:25.623Z,97.65
2022-09-14T01:25:56.607Z,97.55
2022-09-14T01:26:27.600Z,97.45
2022-09-14T01:26:58.709Z,97.45
2022-09-14T01:27:29.184Z,97.45
2022-09-14T01:28:00.071Z,97.45
2022-09-14T01:28:30.982Z,97.55
2022-09-14T01:29:01.910Z,97.55
2022-09-14T01:29:32.861Z,97.65
2022-09-14T01:30:04.047Z,97.65
2022-09-14T01:30:34.509Z,97.55
2022-09-14T01:31:05.523Z,97.65
2022-09-14T01:31:35.999Z,97.65
2022-09-14T01:32:06.455Z,97.65
2022-09-14T01:32:37.361Z,97.75
2022-09-14T01:33:08.469Z,97.75
2022-09-14T01:33:39.077Z,97.65
2022-09-14T01:34:09.495Z,97.65
2022-09-14T01:34:40.393Z,97.55
2022-09-14T01:35:14.123Z,97.45
2022-09-14T01:35:42.029Z,97.55
2022-09-14T01:36:13.123Z,97.65
2022-09-14T01:36:43.590Z,97.75
2022-09-14T01:37:14.579Z,97.75
2022-09-14T01:37:45.566Z,97.85
2022-09-14T01:38:16.474Z,97.75
2022-09-14T01:38:47.389Z,97.75
2022-09-14T01:39:18.579Z,97.85
2022-09-14T01:39:49.130Z,97.75
2022-09-14T01:40:19.707Z,97.75
2022-09-14T01:40:50.179Z,97.75
2022-09-14T01:41:21.164Z,97.75
2022-09-14T01:41:52.071Z,97.65
2022-09-14T01:42:23.174Z,97.65
2022-09-14T01:42:53.666Z,97.65
2022-09-14T01:43:24.171Z,97.75
2022-09-14T01:43:55.096Z,97.75
2022-09-14T01:44:25.999Z,97.75
2022-09-14T01:44:56.982Z,97.75
2022-09-14T01:45:28.152Z,97.75
2022-09-14T01:45:58.874Z,97.75
2022-09-14T01:46:29.353Z,97.85
2022-09-14T01:47:00.339Z,97.75
2022-09-14T01:47:31.258Z,97.65
2022-09-14T01:48:02.161Z,97.65
2022-09-14T01:48:33.278Z,97.75
2022-09-14T01:49:03.787Z,97.75
2022-09-14T01:49:34.270Z,97.75
2022-09-14T01:50:05.183Z,97.75
2022-09-14T01:50:36.178Z,97.85
2022-09-14T01:51:07.137Z,97.85
2022-09-14T01:51:38.264Z,97.85
2022-09-14T01:52:08.711Z,97.96
2022-09-14T01:52:39.615Z,97.85
2022-09-14T01:53:10.530Z,97.85
2022-09-14T01:53:41.460Z,97.85
2022-09-14T01:54:12.370Z,97.85
2022-09-14T01:54:43.484Z,98.05
2022-09-14T01:55:13.972Z,98.05
2022-09-14T01:55:44.881Z,98.16
2022-09-14T01:56:15.858Z,98.25
2022-09-14T01:56:46.784Z,98.25
2022-09-14T01:57:17.769Z,98.25
2022-09-14T01:57:48.946Z,98.25
2022-09-14T01:58:19.420Z,98.25
2022-09-14T01:58:50.305Z,98.16
2022-09-14T01:59:21.228Z,98.16
2022-09-14T01:59:52.144Z,98.25
2022-09-14T02:00:23.116Z,98.36
2022-09-14T02:00:54.379Z,98.46
2022-09-14T02:01:24.933Z,98.46
2022-09-14T02:01:55.694Z,98.36
2022-09-14T02:02:26.567Z,98.36
2022-09-14T02:02:57.190Z,98.46
2022-09-14T02:03:27.727Z,98.36
2022-09-14T02:03:58.862Z,98.36
2022-09-14T02:04:29.295Z,98.25
2022-09-14T02:05:00.210Z,98.25
2022-09-14T02:05:31.126Z,98.40
2022-09-14T02:06:02.044Z,98.25
2022-09-14T02:06:33.010Z,98.36
2022-09-14T02:07:04.117Z,98.36
2022-09-14T02:07:34.605Z,98.36
2022-09-14T02:08:05.587Z,98.56
2022-09-14T02:08:36.555Z,98.66
2022-09-14T02:09:07.467Z,98.66
2022-09-14T02:09:38.378Z,98.66
2022-09-14T02:10:09.477Z,98.56
2022-09-14T02:10:39.954Z,98.46
2022-09-14T02:11:10.878Z,98.46
2022-09-14T02:11:41.834Z,98.56
2022-09-14T02:12:12.816Z,98.66
2022-09-14T02:12:43.786Z,98.66
2022-09-14T02:13:14.889Z,98.66
2022-09-14T02:13:45.303Z,98.66
2022-09-14T02:14:16.298Z,98.66
2022-09-14T02:14:47.209Z,98.56
2022-09-14T02:15:18.133Z,98.56
2022-09-14T02:15:49.161Z,98.66
2022-09-14T02:16:19.978Z,98.56
2022-09-14T02:16:50.488Z,98.56
2022-09-14T02:17:21.412Z,98.66
2022-09-14T02:17:52.394Z,98.66
2022-09-14T02:18:23.329Z,98.66
2022-09-14T02:18:54.240Z,98.46
2022-09-14T02:19:25.428Z,98.46
2022-09-14T02:19:55.919Z,98.46
2022-09-14T02:20:26.404Z,98.56
2022-09-14T02:20:57.392Z,98.66
2022-09-14T02:21:28.312Z,98.76
2022-09-14T02:21:59.274Z,98.66
2022-09-14T02:22:30.380Z,98.66
2022-09-14T02:23:00.859Z,98.66
2022-09-14T02:23:31.790Z,98.66
2022-09-14T02:24:02.707Z,98.66
2022-09-14T02:24:33.622Z,98.66
2022-09-14T02:25:04.560Z,98.66
2022-09-14T02:25:35.672Z,98.66
2022-09-14T02:26:06.156Z,98.76
2022-09-14T02:26:37.077Z,98.76
2022-09-14T02:27:08.054Z,98.76
2022-09-14T02:27:38.942Z,98.76
2022-09-14T02:28:09.934Z,98.86
2022-09-14T02:28:41.120Z,98.86
2022-09-14T02:29:13.815Z,98.86
2022-09-14T02:30:24.085Z,98.86
2022-09-14T02:30:54.993Z,98.86
2022-09-14T02:31:26.205Z,98.86
2022-09-14T02:31:56.800Z,98.96
2022-09-14T02:32:27.318Z,99.01
2022-09-14T02:32:58.231Z,98.91
2022-09-14T02:33:29.145Z,98.81
2022-09-14T02:34:00.131Z,98.86
2022-09-14T02:34:31.309Z,98.91
2022-09-14T02:35:01.819Z,98.86
2022-09-14T02:35:32.236Z,98.96
2022-09-14T02:36:03.153Z,98.96
2022-09-14T02:36:34.079Z,99.01
2022-09-14T02:37:04.986Z,99.01
2022-09-14T02:37:36.155Z,99.07
2022-09-14T02:38:06.580Z,99.16
2022-09-14T02:38:37.571Z,99.16
2022-09-14T02:39:08.486Z,99.16
2022-09-14T02:39:39.462Z,99.27
2022-09-14T02:40:10.458Z,99.37
2022-09-14T02:40:41.388Z,99.37
2022-09-14T02:41:11.874Z,99.37
2022-09-14T02:41:42.869Z,99.27
2022-09-14T02:42:13.807Z,99.37
2022-09-14T02:42:44.774Z,99.42
2022-09-14T02:43:15.701Z,99.47
2022-09-14T02:43:46.996Z,99.37
2022-09-14T02:44:17.515Z,99.41
2022-09-14T02:44:48.435Z,99.47
2022-09-14T02:45:19.426Z,99.47
2022-09-14T02:45:50.348Z,99.47
2022-09-14T02:46:21.415Z,99.47
2022-09-14T02:46:52.184Z,99.62
2022-09-14T02:47:22.702Z,99.57
2022-09-14T02:47:53.724Z,99.52
2022-09-14T02:48:24.209Z,99.67
2022-09-14T02:48:55.132Z,99.77
2022-09-14T02:49:26.115Z,99.77
2022-09-14T02:49:57.233Z,99.82
2022-09-14T02:50:27.742Z,99.77
2022-09-14T02:50:58.161Z,99.72
2022-09-14T02:51:29.142Z,99.72
2022-09-14T02:52:00.076Z,99.72
2022-09-14T02:52:31.083Z,99.77
2022-09-14T02:53:02.246Z,99.77
2022-09-14T02:53:32.666Z,99.87
2022-09-14T02:54:03.583Z,99.98
2022-09-14T02:54:34.569Z,99.98
2022-09-14T02:55:05.486Z,99.87
2022-09-14T02:55:36.389Z,99.99
2022-09-14T02:56:07.503Z,99.98
2022-09-14T02:56:37.982Z,99.87
2022-09-14T02:57:08.879Z,99.87
2022-09-14T02:57:39.854Z,99.87
2022-09-14T02:58:10.405Z,99.87
2022-09-14T02:58:41.328Z,99.87
2022-09-14T02:59:12.512Z,99.87
2022-09-14T02:59:42.993Z,99.98
2022-09-14T03:00:13.904Z,99.87
2022-09-14T03:00:44.858Z,99.87
2022-09-14T03:01:15.475Z,99.87
2022-09-14T03:01:46.000Z,99.77
2022-09-14T03:02:16.695Z,99.82
2022-09-14T03:02:47.229Z,99.77
2022-09-14T03:03:17.733Z,99.77
2022-09-14T03:03:48.649Z,99.77
2022-09-14T03:04:19.634Z,99.77
2022-09-14T03:04:50.560Z,99.87
2022-09-14T03:05:21.763Z,99.77
2022-09-14T03:05:52.272Z,99.87
2022-09-14T03:06:23.202Z,99.92
2022-09-14T03:06:54.151Z,99.87
2022-09-14T03:07:25.066Z,99.77
2022-09-14T03:07:55.970Z,99.67
2022-09-14T03:08:27.134Z,99.57
2022-09-14T03:08:57.680Z,99.57
2022-09-14T03:09:28.101Z,99.57
2022-09-14T03:09:59.084Z,99.67
2022-09-14T03:10:30.004Z,99.77
2022-09-14T03:11:00.911Z,99.77
2022-09-14T03:11:32.101Z,99.82
2022-09-14T03:12:02.594Z,99.77
2022-09-14T03:12:33.575Z,99.87
2022-09-14T03:13:04.483Z,99.82
2022-09-14T03:13:35.440Z,99.83
2022-09-14T03:14:06.350Z,99.87
2022-09-14T03:14:37.523Z,99.67
2022-09-14T03:15:08.006Z,99.62
2022-09-14T03:15:38.982Z,99.67
2022-09-14T03:16:09.983Z,99.67
2022-09-14T03:16:40.453Z,99.67
2022-09-14T03:17:11.402Z,99.67
2022-09-14T03:17:42.505Z,99.72
2022-09-14T03:18:14.644Z,99.72
2022-09-14T03:18:43.979Z,99.67
2022-09-14T03:19:14.485Z,99.67
2022-09-14T03:19:45.477Z,99.67
2022-09-14T03:20:16.471Z,99.72
2022-09-14T03:20:47.589Z,99.57
2022-09-14T03:21:18.191Z,99.57
2022-09-14T03:21:48.691Z,99.47
2022-09-14T03:22:19.681Z,99.57
2022-09-14T03:22:50.633Z,99.47
2022-09-14T03:23:21.551Z,99.67
2022-09-14T03:23:52.715Z,99.67
2022-09-14T03:24:23.112Z,99.77
2022-09-14T03:24:54.026Z,99.77
2022-09-14T03:25:25.022Z,99.67
2022-09-14T03:25:56.008Z,99.57
2022-09-14T03:26:26.929Z,99.67
2022-09-14T03:26:58.110Z,99.67
2022-09-14T03:27:28.596Z,99.67
2022-09-14T03:27:59.547Z,99.37
2022-09-14T03:28:30.536Z,99.41
2022-09-14T03:29:01.510Z,99.37
2022-09-14T03:29:32.410Z,99.32
2022-09-14T03:30:03.502Z,99.37
2022-09-14T03:30:34.007Z,99.27
2022-09-14T03:31:05.011Z,99.37
2022-09-14T03:31:35.631Z,99.37
2022-09-14T03:32:06.088Z,99.47
2022-09-14T03:32:37.007Z,99.47
2022-09-14T03:33:08.187Z,99.41
2022-09-14T03:33:38.677Z,99.37
2022-09-14T03:34:09.640Z,99.37
2022-09-14T03:34:40.563Z,99.52
2022-09-14T03:35:11.484Z,99.37
2022-09-14T03:35:42.465Z,99.52
2022-09-14T03:36:13.578Z,99.47
2022-09-14T03:36:45.920Z,99.37
2022-09-14T03:37:14.874Z,99.16
2022-09-14T03:37:45.795Z,99.07
2022-09-14T03:38:16.779Z,99.07
2022-09-14T03:38:47.698Z,99.07
2022-09-14T03:39:18.860Z,99.16
2022-09-14T03:39:49.424Z,99.27
2022-09-14T03:40:22.108Z,99.37
2022-09-14T03:40:50.796Z,99.47
2022-09-14T03:41:21.774Z,99.57
2022-09-14T03:41:52.764Z,99.57
2022-09-14T03:42:23.938Z,99.67
2022-09-14T03:42:54.430Z,99.67
2022-09-14T03:43:25.358Z,99.67
2022-09-14T03:43:56.341Z,99.67
2022-09-14T03:44:27.301Z,99.62
2022-09-14T03:44:58.287Z,99.67
2022-09-14T03:45:29.471Z,99.67
2022-09-14T03:45:59.947Z,99.67
2022-09-14T03:46:30.974Z,99.67
2022-09-14T03:47:01.566Z,99.77
2022-09-14T03:47:32.001Z,99.77
2022-09-14T03:48:02.916Z,99.77
2022-09-14T03:48:34.021Z,99.98
2022-09-14T03:49:04.495Z,99.83
2022-09-14T03:49:35.527Z,99.98
2022-09-14T03:50:06.029Z,99.77
2022-09-14T03:50:36.940Z,99.73
2022-09-14T03:51:07.921Z,99.82
2022-09-14T03:51:39.092Z,99.52
2022-09-14T03:52:09.695Z,99.57
2022-09-14T03:52:40.182Z,99.57
2022-09-14T03:53:11.163Z,99.52
2022-09-14T03:53:42.074Z,99.47
2022-09-14T03:54:13.061Z,99.52
2022-09-14T03:54:44.251Z,99.62
2022-09-14T03:55:14.643Z,99.57
2022-09-14T03:55:45.641Z,99.57
2022-09-14T03:56:16.622Z,99.67
2022-09-14T03:56:47.535Z,99.67
2022-09-14T03:57:18.452Z,99.77
2022-09-14T03:57:49.559Z,99.87
2022-09-14T03:58:20.033Z,99.83
2022-09-14T03:58:51.024Z,99.77
2022-09-14T03:59:21.944Z,99.98
2022-09-14T03:59:52.895Z,99.98
2022-09-14T04:00:23.810Z,99.99
2022-09-14T04:00:54.919Z,99.99
2022-09-14T04:01:25.495Z,99.99
2022-09-14T04:01:55.961Z,99.99
2022-09-14T04:02:26.588Z,99.99
2022-09-14T04:02:57.148Z,99.99
2022-09-14T04:03:27.615Z,99.99
2022-09-14T04:03:58.728Z,99.99
2022-09-14T04:04:29.186Z,99.99
2022-09-14T04:05:00.169Z,99.99
2022-09-14T04:05:31.102Z,99.99
2022-09-14T04:06:02.039Z,99.99
2022-09-14T04:06:32.963Z,99.99
2022-09-14T04:07:04.118Z,99.99
2022-09-14T04:07:34.721Z,99.99
2022-09-14T04:08:05.145Z,99.99
2022-09-14T04:08:36.060Z,99.99
2022-09-14T04:09:07.053Z,99.99
2022-09-14T04:09:38.040Z,99.99
2022-09-14T04:10:09.210Z,99.99
2022-09-14T04:10:39.628Z,99.99
2022-09-14T04:11:10.540Z,99.99
2022-09-14T04:11:41.446Z,99.99
2022-09-14T04:12:12.371Z,99.99
2022-09-14T04:12:43.354Z,99.99
2022-09-14T04:13:14.468Z,99.99
2022-09-14T04:13:44.946Z,99.99
2022-09-14T04:14:15.931Z,99.99
2022-09-14T04:14:46.838Z,99.99
2022-09-14T04:15:17.799Z,99.99
2022-09-14T04:15:48.847Z,99.99
2022-09-14T04:16:19.608Z,99.99
2022-09-14T04:16:50.133Z,99.93
2022-09-14T04:17:21.038Z,99.87
2022-09-14T04:17:51.948Z,99.92
2022-09-14T04:18:22.939Z,99.87
2022-09-14T04:18:53.917Z,99.87
2022-09-14T04:19:25.057Z,99.98
2022-09-14T04:19:55.533Z,99.99
2022-09-14T04:20:26.482Z,99.99
2022-09-14T04:20:57.464Z,99.99
2022-09-14T04:21:28.385Z,99.99
2022-09-14T04:21:59.296Z,99.99
2022-09-14T04:22:30.487Z,99.99
2022-09-14T04:23:00.993Z,99.99
2022-09-14T04:23:31.481Z,99.99
2022-09-14T04:24:14.746Z,99.99
2022-09-14T04:24:34.356Z,99.99
2022-09-14T04:25:04.029Z,99.99
2022-09-14T04:25:34.524Z,99.99
2022-09-14T04:26:05.438Z,99.99
2022-09-14T04:26:36.361Z,99.99
2022-09-14T04:27:07.280Z,99.99
2022-09-14T04:27:38.202Z,99.99
2022-09-14T04:28:20.138Z,99.99
2022-09-14T04:28:40.774Z,99.99
2022-09-14T04:29:10.258Z,99.99
2022-09-14T04:29:41.197Z,99.99
2022-09-14T04:30:12.176Z,99.99
2022-09-14T04:30:43.344Z,99.98
2022-09-14T04:31:13.835Z,99.98
2022-09-14T04:31:44.365Z,99.99
2022-09-14T04:32:14.894Z,99.99
2022-09-14T04:32:45.818Z,99.99
2022-09-14T04:33:17.006Z,99.99
2022-09-14T04:33:47.794Z,99.99
2022-09-14T04:34:18.324Z,99.99
2022-09-14T04:34:49.281Z,99.99
2022-09-14T04:35:20.263Z,99.99
2022-09-14T04:35:51.235Z,99.99
2022-09-14T04:36:22.152Z,99.99
2022-09-14T04:36:53.266Z,99.99
2022-09-14T04:37:23.746Z,99.99
2022-09-14T04:37:54.732Z,99.99
2022-09-14T04:38:25.820Z,99.99
2022-09-14T04:38:56.323Z,99.99
2022-09-14T04:39:27.201Z,99.99
2022-09-14T04:39:58.338Z,99.99
2022-09-14T04:40:28.987Z,99.99
2022-09-14T04:40:59.509Z,99.99
2022-09-14T04:41:30.432Z,99.99
2022-09-14T04:42:01.348Z,99.99
2022-09-14T04:42:32.276Z,99.99
2022-09-14T04:43:03.448Z,99.99
2022-09-14T04:43:33.950Z,99.99
2022-09-14T04:44:04.867Z,99.93
2022-09-14T04:44:35.789Z,99.99
2022-09-14T04:45:06.703Z,99.99
2022-09-14T04:45:37.672Z,99.99
2022-09-14T04:46:08.861Z,99.99
2022-09-14T04:46:43.586Z,99.99
2022-09-14T04:47:11.399Z,99.99
2022-09-14T04:47:40.887Z,99.99
2022-09-14T04:48:11.831Z,99.99
2022-09-14T04:48:43.064Z,99.99
2022-09-14T04:49:13.373Z,99.99
2022-09-14T04:49:44.309Z,99.99
2022-09-14T04:50:15.219Z,99.99
2022-09-14T04:50:46.211Z,99.99
2022-09-14T04:51:17.240Z,99.99
2022-09-14T04:51:47.895Z,99.99
2022-09-14T04:52:18.312Z,99.99
2022-09-14T04:52:49.179Z,99.99
2022-09-14T04:53:20.121Z,99.99
2022-09-14T04:53:51.138Z,99.99
2022-09-14T04:54:21.655Z,99.99
2022-09-14T04:54:52.705Z,99.99
2022-09-14T04:55:23.147Z,99.99
2022-09-14T04:55:54.098Z,99.99
2022-09-14T04:56:25.034Z,99.99
2022-09-14T04:56:55.899Z,99.99
2022-09-14T04:57:26.763Z,99.99
2022-09-14T04:57:57.846Z,99.99
2022-09-14T04:58:28.266Z,99.99
2022-09-14T04:58:59.155Z,99.99
2022-09-14T04:59:30.145Z,99.99
2022-09-14T05:00:00.921Z,99.99
2022-09-14T05:00:31.357Z,99.99
2022-09-14T05:01:02.493Z,99.99
2022-09-14T05:01:32.950Z,99.99
2022-09-14T05:02:04.007Z,99.99
2022-09-14T05:02:34.819Z,99.99
2022-09-14T05:03:05.435Z,99.99
2022-09-14T05:03:35.872Z,99.99
2022-09-14T05:04:07.042Z,99.99
2022-09-14T05:04:37.619Z,99.99
2022-09-14T05:05:08.553Z,99.99
2022-09-14T05:05:44.209Z,99.99
2022-09-14T05:06:11.321Z,99.99
2022-09-14T05:06:41.441Z,99.99
2022-09-14T05:07:11.806Z,99.99
2022-09-14T05:07:42.737Z,99.99
2022-09-14T05:08:13.600Z,99.99
2022-09-14T05:08:44.484Z,99.99
2022-09-14T05:09:15.430Z,99.99
2022-09-14T05:09:46.490Z,99.99
2022-09-14T05:10:16.950Z,99.99
2022-09-14T05:10:47.822Z,99.99
2022-09-14T05:11:18.749Z,99.99
2022-09-14T05:11:49.683Z,99.99
2022-09-14T05:12:20.632Z,99.99
2022-09-14T05:12:51.773Z,99.99
2022-09-14T05:13:22.208Z,99.99
2022-09-14T05:13:53.156Z,99.99
2022-09-14T05:14:24.028Z,99.99
2022-09-14T05:14:54.954Z,99.99
2022-09-14T05:15:25.881Z,99.99
2022-09-14T05:15:57.083Z,99.99
2022-09-14T05:16:27.647Z,99.99
2022-09-14T05:16:58.139Z,99.99
2022-09-14T05:17:29.071Z,99.99
2022-09-14T05:18:00.013Z,99.99
2022-09-14T05:18:30.950Z,99.99
2022-09-14T05:19:02.117Z,99.99
2022-09-14T05:19:32.570Z,99.99
2022-09-14T05:20:03.445Z,99.99
2022-09-14T05:20:34.377Z,99.99
2022-09-14T05:21:08.396Z,99.99
2022-09-14T05:21:36.070Z,99.99
2022-09-14T05:22:07.171Z,99.99
2022-09-14T05:22:37.523Z,99.99
2022-09-14T05:23:08.391Z,99.99
2022-09-14T05:23:39.250Z,99.99
2022-09-14T05:24:10.203Z,99.99
2022-09-14T05:24:41.173Z,99.99
2022-09-14T05:25:12.274Z,99.99
2022-09-14T05:25:42.726Z,99.99
2022-09-14T05:26:13.660Z,99.99
2022-09-14T05:26:44.532Z,99.99
2022-09-14T05:27:15.458Z,99.99
2022-09-14T05:27:46.336Z,99.99
2022-09-14T05:28:17.472Z,99.99
2022-09-14T05:28:47.931Z,99.99
2022-09-14T05:29:18.832Z,99.99
2022-09-14T05:29:49.783Z,99.99
2022-09-14T05:30:20.651Z,99.99
2022-09-14T05:30:51.572Z,99.99
2022-09-14T05:31:22.707Z,99.99
2022-09-14T05:31:53.177Z,99.99
2022-09-14T05:32:24.141Z,99.99
2022-09-14T05:32:57.940Z,99.99
2022-09-14T05:33:25.834Z,99.99
2022-09-14T05:33:56.785Z,99.99
2022-09-14T05:34:27.925Z,99.99
2022-09-14T05:34:58.375Z,99.99
2022-09-14T05:35:29.236Z,99.99
2022-09-14T05:36:00.186Z,99.99
2022-09-14T05:36:31.063Z,99.99
2022-09-14T05:37:02.020Z,99.99
2022-09-14T05:37:33.141Z,99.99
2022-09-14T05:38:03.677Z,99.99
2022-09-14T05:38:34.036Z,99.99
2022-09-14T05:39:04.914Z,99.99
2022-09-14T05:39:35.911Z,99.99
2022-09-14T05:40:07.064Z,99.99
2022-09-14T05:40:37.829Z,99.99
2022-09-14T05:41:08.296Z,99.99
2022-09-14T05:41:39.270Z,99.99
2022-09-14T05:42:10.211Z,99.99
2022-09-14T05:42:41.154Z,99.99
2022-09-14T05:43:12.047Z,99.99
2022-09-14T05:43:43.227Z,99.99
2022-09-14T05:44:13.686Z,99.99
2022-09-14T05:44:44.584Z,99.99
2022-09-14T05:45:15.529Z,99.99
2022-09-14T05:45:46.483Z,99.99
2022-09-14T05:46:17.518Z,99.99
2022-09-14T05:46:48.534Z,99.99
2022-09-14T05:47:19.030Z,99.99
2022-09-14T05:47:50.045Z,99.99
2022-09-14T05:48:20.544Z,99.99
2022-09-14T05:48:51.682Z,99.99
2022-09-14T05:49:22.302Z,99.99
2022-09-14T05:49:53.358Z,99.99
2022-09-14T05:50:23.813Z,99.99
2022-09-14T05:50:54.755Z,99.99
2022-09-14T05:51:25.626Z,99.99
2022-09-14T05:51:56.488Z,99.99
2022-09-14T05:52:27.418Z,99.99
2022-09-14T05:52:58.552Z,99.99
2022-09-14T05:53:29.013Z,99.99
2022-09-14T05:53:59.963Z,99.99
2022-09-14T05:54:30.932Z,99.99
2022-09-14T05:55:01.870Z,99.99
2022-09-14T05:55:32.842Z,99.99
2022-09-14T05:56:03.960Z,99.99
2022-09-14T05:56:34.416Z,99.99
2022-09-14T05:57:05.377Z,99.99
2022-09-14T05:57:36.345Z,99.99
2022-09-14T05:58:07.287Z,99.99
2022-09-14T05:58:38.151Z,99.99
2022-09-14T05:59:09.317Z,99.99
2022-09-14T05:59:39.770Z,99.99
2022-09-14T06:00:10.751Z,99.99
2022-09-14T06:00:41.645Z,99.99
2022-09-14T06:01:12.624Z,99.99
2022-09-14T06:01:43.569Z,99.99
2022-09-14T06:02:18.009Z,99.99
2022-09-14T06:02:44.873Z,99.99
2022-09-14T06:03:15.874Z,99.99
2022-09-14T06:03:46.333Z,99.99
2022-09-14T06:04:17.283Z,99.99
2022-09-14T06:04:48.294Z,99.99
2022-09-14T06:05:19.227Z,99.99
2022-09-14T06:05:49.776Z,99.99
2022-09-14T06:06:20.657Z,99.99
2022-09-14T06:07:14.549Z,99.99
2022-09-14T06:07:23.444Z,99.99
2022-09-14T06:07:53.337Z,99.99
2022-09-14T06:08:24.559Z,99.99
2022-09-14T06:08:54.954Z,99.99
2022-09-14T06:09:28.939Z,99.99
2022-09-14T06:09:56.825Z,99.99
2022-09-14T06:10:27.850Z,99.99
2022-09-14T06:10:58.568Z,99.99
2022-09-14T06:11:29.047Z,99.99
2022-09-14T06:12:00.012Z,99.99
2022-09-14T06:12:30.977Z,99.99
2022-09-14T06:13:01.980Z,99.99
2022-09-14T06:13:32.959Z,99.99
2022-09-14T06:14:04.048Z,99.99
2022-09-14T06:14:34.536Z,99.74
2022-09-14T06:15:04.996Z,99.64
2022-09-14T06:15:35.937Z,99.08
2022-09-14T06:16:06.445Z,98.73
2022-09-14T06:16:37.425Z,98.43
2022-09-14T06:17:08.591Z,98.48
2022-09-14T06:17:39.051Z,98.22
2022-09-14T06:18:09.955Z,97.78
2022-09-14T06:18:40.969Z,97.72
2022-09-14T06:19:11.436Z,97.58
2022-09-14T06:19:42.347Z,97.07
2022-09-14T06:20:13.527Z,97.27
2022-09-14T06:20:43.977Z,97.13
2022-09-14T06:21:14.891Z,97.33
2022-09-14T06:21:45.831Z,96.92
2022-09-14T06:22:16.718Z,97.27
2022-09-14T06:22:47.629Z,96.97
2022-09-14T06:23:18.799Z,96.42
2022-09-14T06:23:49.412Z,96.62
2022-09-14T06:24:20.151Z,96.62
2022-09-14T06:24:51.122Z,96.52
2022-09-14T06:25:22.108Z,96.58
2022-09-14T06:25:52.997Z,96.28
2022-09-14T06:26:24.108Z,96.22
2022-09-14T06:26:54.589Z,96.01
2022-09-14T06:27:25.543Z,96.32
2022-09-14T06:27:56.521Z,96.62
2022-09-14T06:28:27.485Z,96.72
2022-09-14T06:28:58.494Z,97.18
2022-09-14T06:29:29.100Z,97.28
2022-09-14T06:29:59.546Z,97.43
2022-09-14T06:30:30.480Z,97.13
2022-09-14T06:31:01.441Z,97.43
2022-09-14T06:31:32.388Z,97.33
2022-09-14T06:32:03.263Z,97.43
2022-09-14T06:32:34.344Z,97.28
2022-09-14T06:33:04.817Z,97.49
2022-09-14T06:33:35.688Z,97.23
2022-09-14T06:34:06.624Z,96.52
2022-09-14T06:34:37.568Z,96.32
2022-09-14T06:35:12.284Z,96.83
2022-09-14T06:35:39.256Z,96.83
2022-09-14T06:36:09.690Z,96.72
2022-09-14T06:36:40.643Z,97.03
2022-09-14T06:37:11.616Z,97.28
2022-09-14T06:37:42.583Z,97.33